Terminal Aerodrome Forecast
Issued by NWS

Home | Current Version | Previous Version | Text Only | Print | Product List | Glossary On
Versions: 1 2 3 4 5 6 7 8 9 10 11 12
646
FTUS42 KTBW 221134
TAFPIE
TAF
KPIE 221134Z 2212/2312 10010KT P6SM SCT025 BKN200
     FM221700 13010KT P6SM VCSH SCT025 BKN150
     FM230100 12008KT P6SM SCT030 BKN200=

USA.gov is the U.S. government's official web portal to all federal, state and local government web resources and services.